createdAt,value
2017-09-03T00:00:27.713Z,10.00
2017-09-03T00:02:57.040Z,9.70
2017-09-03T00:05:26.450Z,9.60
2017-09-03T00:07:55.564Z,9.90
2017-09-03T00:10:25.051Z,9.70
2017-09-03T00:12:54.409Z,9.70
2017-09-03T00:15:24.054Z,9.70
2017-09-03T00:17:53.311Z,9.60
2017-09-03T00:20:22.505Z,9.60
2017-09-03T00:22:51.756Z,9.70
2017-09-03T00:25:21.284Z,9.80
2017-09-03T00:27:50.529Z,10.20
2017-09-03T00:30:19.907Z,10.00
2017-09-03T00:32:49.112Z,10.40
2017-09-03T00:35:18.369Z,10.00
2017-09-03T00:37:47.892Z,10.00
2017-09-03T00:40:17.641Z,10.70
2017-09-03T00:42:47.850Z,10.40
2017-09-03T00:45:17.085Z,10.40
2017-09-03T00:47:46.994Z,10.40
2017-09-03T00:50:16.739Z,10.40
2017-09-03T00:52:46.203Z,10.30
2017-09-03T00:55:16.324Z,10.40
2017-09-03T00:57:45.387Z,10.60
2017-09-03T01:00:14.114Z,10.60
2017-09-03T01:02:43.213Z,10.80
2017-09-03T01:05:12.565Z,10.80
2017-09-03T01:07:43.809Z,10.70
2017-09-03T01:10:13.182Z,10.90
2017-09-03T01:12:42.391Z,11.00
2017-09-03T01:15:11.590Z,11.00
2017-09-03T01:17:41.063Z,11.00
2017-09-03T01:20:10.466Z,11.50
2017-09-03T01:22:39.780Z,11.40
2017-09-03T01:25:09.107Z,11.50
2017-09-03T01:27:38.281Z,11.70
2017-09-03T01:30:07.523Z,11.50
2017-09-03T01:32:36.867Z,11.70
2017-09-03T01:35:06.112Z,12.00
2017-09-03T01:37:35.377Z,12.40
2017-09-03T01:40:04.670Z,12.10
2017-09-03T01:42:34.937Z,12.60
2017-09-03T01:45:04.394Z,12.30
2017-09-03T01:47:33.610Z,12.20
2017-09-03T01:50:02.716Z,12.40
2017-09-03T01:52:32.485Z,12.70
2017-09-03T01:55:01.718Z,12.80
2017-09-03T01:57:31.129Z,12.80
2017-09-03T02:00:00.380Z,13.00
2017-09-03T02:02:29.537Z,13.20
2017-09-03T02:04:58.927Z,13.10
2017-09-03T02:07:28.480Z,13.30
2017-09-03T02:09:57.850Z,13.40
2017-09-03T02:12:27.283Z,13.50
2017-09-03T02:14:56.794Z,13.60
2017-09-03T02:17:26.001Z,13.80
2017-09-03T02:19:55.194Z,13.90
2017-09-03T02:22:24.800Z,13.80
2017-09-03T02:24:56.314Z,14.00
2017-09-03T02:27:25.672Z,14.30
2017-09-03T02:29:54.836Z,14.50
2017-09-03T02:32:24.080Z,14.60
2017-09-03T02:34:53.351Z,14.80
2017-09-03T02:37:22.525Z,14.90
2017-09-03T02:39:51.734Z,15.00
2017-09-03T02:42:21.636Z,15.10
2017-09-03T02:44:52.146Z,15.20
2017-09-03T02:47:21.324Z,15.50
2017-09-03T02:49:50.430Z,15.60
2017-09-03T02:52:19.423Z,15.50
2017-09-03T02:54:48.910Z,15.80
2017-09-03T02:57:18.249Z,16.00
2017-09-03T02:59:47.338Z,16.50
2017-09-03T03:02:16.611Z,16.50
2017-09-03T03:04:45.647Z,16.40
2017-09-03T03:07:14.723Z,16.80
2017-09-03T03:09:44.053Z,16.50
2017-09-03T03:12:13.087Z,16.80
2017-09-03T03:14:42.592Z,17.80
2017-09-03T03:17:12.213Z,17.30
2017-09-03T03:19:41.209Z,17.60
2017-09-03T03:22:10.577Z,17.10
2017-09-03T03:24:39.812Z,17.70
2017-09-03T03:27:09.029Z,17.40
2017-09-03T03:29:38.091Z,17.60
2017-09-03T03:32:07.622Z,18.00
2017-09-03T03:34:36.783Z,18.40
2017-09-03T03:37:05.973Z,17.90
2017-09-03T03:39:35.359Z,18.00
2017-09-03T03:42:04.439Z,18.30
2017-09-03T03:44:33.280Z,18.20
2017-09-03T03:47:03.542Z,18.60
2017-09-03T03:49:33.782Z,18.50
2017-09-03T03:52:03.309Z,19.20
2017-09-03T03:54:32.510Z,19.20
2017-09-03T03:57:01.822Z,19.20
2017-09-03T03:59:31.060Z,19.90
2017-09-03T04:02:00.215Z,19.90
2017-09-03T04:04:29.613Z,20.40
2017-09-03T04:06:58.916Z,20.60
2017-09-03T04:09:27.969Z,21.00
2017-09-03T04:11:56.839Z,20.90
2017-09-03T04:14:26.213Z,20.90
2017-09-03T04:16:55.168Z,21.30
2017-09-03T04:19:24.569Z,21.80
2017-09-03T04:21:53.757Z,21.50
2017-09-03T04:24:23.402Z,21.70
2017-09-03T04:26:52.840Z,21.80
2017-09-03T04:29:22.256Z,22.80
2017-09-03T04:31:51.351Z,22.40
2017-09-03T04:34:20.721Z,22.30
2017-09-03T04:36:50.249Z,22.40
2017-09-03T04:39:19.597Z,22.40
2017-09-03T04:41:50.021Z,22.30
2017-09-03T04:44:19.409Z,22.40
2017-09-03T04:46:48.572Z,22.30
2017-09-03T04:49:18.372Z,22.30
2017-09-03T04:51:47.755Z,22.50
2017-09-03T04:54:17.193Z,22.50
2017-09-03T04:56:46.538Z,22.40
2017-09-03T04:59:15.820Z,22.70
2017-09-03T05:01:45.078Z,23.00
2017-09-03T05:04:14.568Z,22.70
2017-09-03T05:06:43.796Z,22.80
2017-09-03T05:09:12.897Z,22.80
2017-09-03T05:11:42.232Z,23.10
2017-09-03T05:14:11.747Z,22.90
2017-09-03T05:16:41.067Z,23.40
2017-09-03T05:19:10.830Z,23.10
2017-09-03T05:21:39.651Z,23.60
2017-09-03T05:24:08.711Z,23.40
2017-09-03T05:26:37.820Z,23.40
2017-09-03T05:29:07.145Z,23.80
2017-09-03T05:31:36.335Z,24.00
2017-09-03T05:34:05.640Z,24.20
2017-09-03T05:36:35.048Z,24.20
2017-09-03T05:39:04.507Z,24.40
2017-09-03T05:41:33.766Z,24.50
2017-09-03T05:44:02.847Z,24.40
2017-09-03T05:46:31.909Z,24.50
2017-09-03T05:49:01.092Z,24.60
2017-09-03T05:51:31.502Z,24.60
2017-09-03T05:54:00.352Z,24.90
2017-09-03T05:56:29.049Z,25.10
2017-09-03T05:58:58.569Z,25.10
2017-09-03T06:01:28.049Z,25.10
2017-09-03T06:03:56.852Z,25.10
2017-09-03T06:06:26.147Z,25.10
2017-09-03T06:08:55.793Z,25.40
2017-09-03T06:11:25.328Z,25.60
2017-09-03T06:13:54.525Z,25.70
2017-09-03T06:16:23.831Z,26.30
2017-09-03T06:18:53.141Z,26.70
2017-09-03T06:21:22.366Z,26.90
2017-09-03T06:23:51.684Z,27.30
2017-09-03T06:26:21.353Z,27.70
2017-09-03T06:28:50.558Z,28.60
2017-09-03T06:31:19.968Z,28.10
2017-09-03T06:33:49.256Z,28.50
2017-09-03T06:36:18.802Z,28.70
2017-09-03T06:38:48.316Z,28.90
2017-09-03T06:41:17.709Z,29.00
2017-09-03T06:43:47.159Z,29.10
2017-09-03T06:46:16.412Z,29.20
2017-09-03T06:48:45.536Z,29.30
2017-09-03T06:51:14.924Z,29.50
2017-09-03T06:53:45.743Z,29.60
2017-09-03T06:56:15.236Z,29.50
2017-09-03T06:58:44.566Z,29.70
2017-09-03T07:01:13.677Z,30.00
2017-09-03T07:03:43.274Z,30.00
2017-09-03T07:06:12.589Z,30.00
2017-09-03T07:08:41.953Z,30.10
2017-09-03T07:11:11.158Z,30.70
2017-09-03T07:13:40.405Z,30.80
2017-09-03T07:16:10.025Z,31.40
2017-09-03T07:18:39.367Z,31.50
2017-09-03T07:21:08.726Z,31.70
2017-09-03T07:23:38.022Z,31.60
2017-09-03T07:26:07.441Z,32.30
2017-09-03T07:28:36.997Z,31.80
2017-09-03T07:31:05.753Z,32.00
2017-09-03T07:33:35.221Z,31.60
2017-09-03T07:36:04.430Z,31.50
2017-09-03T07:38:33.829Z,31.80
2017-09-03T07:41:04.414Z,32.20
2017-09-03T07:43:34.943Z,33.00
2017-09-03T07:46:04.943Z,32.80
2017-09-03T07:48:33.945Z,33.30
2017-09-03T07:51:03.723Z,32.80
2017-09-03T07:53:33.033Z,33.30
2017-09-03T07:56:03.597Z,33.30
2017-09-03T07:58:33.323Z,33.60
2017-09-03T08:01:02.688Z,33.80
2017-09-03T08:03:32.311Z,33.80
2017-09-03T08:06:01.925Z,33.70
2017-09-03T08:08:31.298Z,33.90
2017-09-03T08:11:00.487Z,33.80
2017-09-03T08:13:29.744Z,34.90
2017-09-03T08:15:58.572Z,34.40
2017-09-03T08:18:28.075Z,34.40
2017-09-03T08:20:57.430Z,35.00
2017-09-03T08:23:26.736Z,34.80
2017-09-03T08:25:56.258Z,35.10
2017-09-03T08:28:25.824Z,35.10
2017-09-03T08:30:55.646Z,35.30
2017-09-03T08:33:24.731Z,35.20
2017-09-03T08:35:54.354Z,35.40
2017-09-03T08:38:23.856Z,35.00
2017-09-03T08:40:53.186Z,35.80
2017-09-03T08:43:22.385Z,36.10
2017-09-03T08:45:51.704Z,35.70
2017-09-03T08:48:21.142Z,36.00
2017-09-03T08:50:50.447Z,36.40
2017-09-03T08:53:19.788Z,36.80
2017-09-03T08:55:48.980Z,36.30
2017-09-03T08:58:19.214Z,37.10
2017-09-03T09:00:48.591Z,37.60
2017-09-03T09:03:17.769Z,38.70
2017-09-03T09:05:46.965Z,38.90
2017-09-03T09:08:16.591Z,39.90
2017-09-03T09:10:45.918Z,39.70
2017-09-03T09:13:15.320Z,39.80
2017-09-03T09:15:44.389Z,40.60
2017-09-03T09:18:13.674Z,40.60
2017-09-03T09:20:43.097Z,40.70
2017-09-03T09:23:12.802Z,41.70
2017-09-03T09:25:42.097Z,41.70
2017-09-03T09:28:11.477Z,41.70
2017-09-03T09:30:40.677Z,42.20
2017-09-03T09:33:10.118Z,43.10
2017-09-03T09:35:39.597Z,42.70
2017-09-03T09:38:08.849Z,43.30
2017-09-03T09:40:38.245Z,44.00
2017-09-03T09:43:07.330Z,44.70
2017-09-03T09:45:36.933Z,45.20
2017-09-03T09:48:06.591Z,44.90
2017-09-03T09:50:35.674Z,45.10
2017-09-03T09:53:05.144Z,44.80
2017-09-03T09:55:34.651Z,45.20
2017-09-03T09:58:04.002Z,45.00
2017-09-03T10:00:33.878Z,44.80
2017-09-03T10:03:03.113Z,45.00
2017-09-03T10:05:32.358Z,45.30
2017-09-03T10:08:01.789Z,45.40
2017-09-03T10:10:30.861Z,45.70
2017-09-03T10:12:59.958Z,46.10
2017-09-03T10:15:29.233Z,46.10
2017-09-03T10:17:58.806Z,46.60
2017-09-03T10:20:28.214Z,46.70
2017-09-03T10:22:57.564Z,47.10
2017-09-03T10:25:26.792Z,47.20
2017-09-03T10:27:55.932Z,47.20
2017-09-03T10:30:25.076Z,47.60
2017-09-03T10:32:54.656Z,47.70
2017-09-03T10:35:24.363Z,47.80
2017-09-03T10:37:53.485Z,48.30
2017-09-03T10:40:22.873Z,48.60
2017-09-03T10:42:52.150Z,49.00
2017-09-03T10:45:21.553Z,49.40
2017-09-03T10:47:50.798Z,48.90
2017-09-03T10:50:20.016Z,49.20
2017-09-03T10:52:49.215Z,49.30
2017-09-03T10:55:18.782Z,49.40
2017-09-03T10:57:47.988Z,49.70
2017-09-03T11:00:17.179Z,51.00
2017-09-03T11:02:46.794Z,50.40
2017-09-03T11:05:16.080Z,49.90
2017-09-03T11:07:45.346Z,50.10
2017-09-03T11:10:14.671Z,49.70
2017-09-03T11:12:44.067Z,49.70
2017-09-03T11:15:13.303Z,50.10
2017-09-03T11:17:42.646Z,50.10
2017-09-03T11:20:11.702Z,50.20
2017-09-03T11:22:40.957Z,50.20
2017-09-03T11:25:10.170Z,50.40
2017-09-03T11:27:39.529Z,51.00
2017-09-03T11:30:08.627Z,50.60
2017-09-03T11:32:38.052Z,50.20
2017-09-03T11:35:07.167Z,51.60
2017-09-03T11:37:36.398Z,50.90
2017-09-03T11:40:07.470Z,51.10
2017-09-03T11:42:36.776Z,51.50
2017-09-03T11:45:06.866Z,51.90
2017-09-03T11:47:36.295Z,51.50
2017-09-03T11:50:05.419Z,51.80
2017-09-03T11:52:34.465Z,52.30
2017-09-03T11:55:03.687Z,53.20
2017-09-03T11:57:33.033Z,54.30
2017-09-03T12:00:02.233Z,54.50
2017-09-03T12:02:31.435Z,54.60
2017-09-03T12:05:01.576Z,55.20
2017-09-03T12:07:30.902Z,54.50
2017-09-03T12:10:00.208Z,54.70
2017-09-03T12:12:29.475Z,55.00
2017-09-03T12:14:58.578Z,55.50
2017-09-03T12:17:27.694Z,54.60
2017-09-03T12:19:56.919Z,55.00
2017-09-03T12:22:26.360Z,55.60
2017-09-03T12:24:55.767Z,55.20
2017-09-03T12:27:25.064Z,55.30
2017-09-03T12:29:54.373Z,55.00
2017-09-03T12:32:23.747Z,55.80
2017-09-03T12:34:53.179Z,55.60
2017-09-03T12:37:21.952Z,55.80
2017-09-03T12:39:51.164Z,56.10
2017-09-03T12:42:20.410Z,56.70
2017-09-03T12:44:49.458Z,56.80
2017-09-03T12:47:18.979Z,56.50
2017-09-03T12:49:48.533Z,57.20
2017-09-03T12:52:18.079Z,58.30
2017-09-03T12:54:47.147Z,57.40
2017-09-03T12:57:16.424Z,57.60
2017-09-03T12:59:45.717Z,58.30
2017-09-03T13:02:14.920Z,57.80
2017-09-03T13:04:44.202Z,57.80
2017-09-03T13:07:13.905Z,58.80
2017-09-03T13:09:42.980Z,57.10
2017-09-03T13:12:12.522Z,60.00
2017-09-03T13:14:41.981Z,60.30
2017-09-03T13:17:11.150Z,60.20
2017-09-03T13:19:40.605Z,59.40
2017-09-03T13:22:10.025Z,59.60
2017-09-03T13:24:39.287Z,59.70
2017-09-03T13:27:08.382Z,59.60
2017-09-03T13:29:37.486Z,59.80
2017-09-03T13:32:06.751Z,60.00
2017-09-03T13:34:36.152Z,60.30
2017-09-03T13:37:05.290Z,61.30
2017-09-03T13:39:34.927Z,60.30
2017-09-03T13:42:04.224Z,61.20
2017-09-03T13:44:33.442Z,61.20
2017-09-03T13:47:03.249Z,61.70
2017-09-03T13:49:32.545Z,61.60
2017-09-03T13:52:01.716Z,61.60
2017-09-03T13:54:31.459Z,61.60
2017-09-03T13:57:00.619Z,61.60
2017-09-03T13:59:29.924Z,61.60
2017-09-03T14:01:58.971Z,62.70
2017-09-03T14:04:28.407Z,61.70
2017-09-03T14:06:57.648Z,61.70
2017-09-03T14:09:27.378Z,61.80
2017-09-03T14:11:56.722Z,61.40
2017-09-03T14:14:26.179Z,61.90
2017-09-03T14:16:55.561Z,61.40
2017-09-03T14:19:25.418Z,60.90
2017-09-03T14:21:54.664Z,60.70
2017-09-03T14:24:24.251Z,60.80
2017-09-03T14:26:53.581Z,60.60
2017-09-03T14:29:22.703Z,60.10
2017-09-03T14:31:52.006Z,59.90
2017-09-03T14:34:21.317Z,59.60
2017-09-03T14:36:50.509Z,59.80
2017-09-03T14:39:19.718Z,60.20
2017-09-03T14:41:48.952Z,60.30
2017-09-03T14:44:18.260Z,59.60
2017-09-03T14:46:47.412Z,59.40
2017-09-03T14:49:16.688Z,59.40
2017-09-03T14:51:45.679Z,59.10
2017-09-03T14:54:15.039Z,58.20
2017-09-03T14:56:44.191Z,57.70
2017-09-03T14:59:13.594Z,57.20
2017-09-03T15:01:42.746Z,56.90
2017-09-03T15:04:11.924Z,56.80
2017-09-03T15:06:41.223Z,56.50
2017-09-03T15:09:10.479Z,54.80
2017-09-03T15:11:41.091Z,53.80
2017-09-03T15:14:10.335Z,50.20
2017-09-03T15:16:39.434Z,49.30
2017-09-03T15:19:09.084Z,46.40
2017-09-03T15:21:38.347Z,45.20
2017-09-03T15:24:07.670Z,45.10
2017-09-03T15:26:37.070Z,44.10
2017-09-03T15:29:06.448Z,43.80
2017-09-03T15:31:35.967Z,41.00
2017-09-03T15:34:05.465Z,41.70
2017-09-03T15:36:34.951Z,39.90
2017-09-03T15:39:04.894Z,38.50
2017-09-03T15:41:34.836Z,38.60
2017-09-03T15:44:04.894Z,37.60
2017-09-03T15:46:34.946Z,38.20
2017-09-03T15:49:05.025Z,36.30
2017-09-03T15:51:35.242Z,37.20
2017-09-03T15:54:05.253Z,34.00
2017-09-03T15:56:34.796Z,32.60
2017-09-03T15:59:03.987Z,30.70
2017-09-03T16:01:33.238Z,29.50
2017-09-03T16:04:03.632Z,27.70
2017-09-03T16:06:33.127Z,26.60
2017-09-03T16:09:02.695Z,26.20
2017-09-03T16:11:31.676Z,25.40
2017-09-03T16:14:02.452Z,24.80
2017-09-03T16:16:32.848Z,24.50
2017-09-03T16:19:02.472Z,23.20
2017-09-03T16:21:33.371Z,21.40
2017-09-03T16:24:03.361Z,21.90
2017-09-03T16:26:32.650Z,21.20
2017-09-03T16:29:01.434Z,20.10
2017-09-03T16:31:30.200Z,20.60
2017-09-03T16:33:59.118Z,19.70
2017-09-03T16:36:28.101Z,19.60
2017-09-03T16:38:56.856Z,20.30
2017-09-03T16:41:25.558Z,20.40
2017-09-03T16:43:54.391Z,21.60
2017-09-03T16:46:23.879Z,21.50
2017-09-03T16:48:52.948Z,22.60
2017-09-03T16:51:21.923Z,23.10
2017-09-03T16:53:52.020Z,23.90
2017-09-03T16:56:21.733Z,24.50
2017-09-03T16:58:51.517Z,25.60
2017-09-03T17:01:21.198Z,25.80
2017-09-03T17:03:50.083Z,25.30
2017-09-03T17:06:19.013Z,26.50
2017-09-03T17:08:48.447Z,27.30
2017-09-03T17:11:17.691Z,28.00
2017-09-03T17:13:47.132Z,27.10
2017-09-03T17:16:16.848Z,26.90
2017-09-03T17:18:45.871Z,26.80
2017-09-03T17:21:14.887Z,25.50
2017-09-03T17:23:44.780Z,26.00
2017-09-03T17:26:13.773Z,26.60
2017-09-03T17:28:42.672Z,25.60
2017-09-03T17:31:17.543Z,25.60
2017-09-03T17:33:47.016Z,25.00
2017-09-03T17:36:19.735Z,25.10
2017-09-03T17:38:48.722Z,25.80
2017-09-03T17:41:18.477Z,26.30
2017-09-03T17:43:48.415Z,26.60
2017-09-03T17:46:17.385Z,24.70
2017-09-03T17:48:46.301Z,24.50
2017-09-03T17:51:15.361Z,24.90
2017-09-03T17:53:44.280Z,23.80
2017-09-03T17:56:13.320Z,24.20
2017-09-03T17:58:42.567Z,24.20
2017-09-03T18:01:12.126Z,24.10
2017-09-03T18:03:41.762Z,24.00
2017-09-03T18:06:11.272Z,24.50
2017-09-03T18:08:40.237Z,23.60
2017-09-03T18:11:09.142Z,23.30
2017-09-03T18:13:38.115Z,23.30
2017-09-03T18:16:07.105Z,23.40
2017-09-03T18:18:37.534Z,23.10
2017-09-03T18:21:06.401Z,22.50
2017-09-03T18:23:35.416Z,22.60
2017-09-03T18:26:04.361Z,23.00
2017-09-03T18:31:37.264Z,22.20
2017-09-03T18:34:06.375Z,22.10
2017-09-03T18:36:50.565Z,22.40
2017-09-03T18:39:25.149Z,21.90
2017-09-03T18:41:54.479Z,21.40
2017-09-03T18:44:23.966Z,21.60
2017-09-03T18:46:55.968Z,21.20
2017-09-03T18:49:39.315Z,21.00
2017-09-03T18:52:09.393Z,22.10
2017-09-03T18:54:40.559Z,22.90
2017-09-03T18:57:09.459Z,22.10
2017-09-03T19:03:12.369Z,21.30
2017-09-03T19:05:44.130Z,20.60
2017-09-03T19:08:13.727Z,20.50
2017-09-03T19:10:42.659Z,20.60
2017-09-03T19:13:11.624Z,20.20
2017-09-03T19:15:40.538Z,19.70
2017-09-03T19:18:09.532Z,20.50
2017-09-03T19:20:39.511Z,19.50
2017-09-03T19:23:08.478Z,19.00
2017-09-03T19:25:37.816Z,19.80
2017-09-03T19:28:06.726Z,19.60
2017-09-03T19:30:35.785Z,19.00
2017-09-03T19:33:04.810Z,19.30
2017-09-03T19:35:33.968Z,18.70
2017-09-03T19:38:07.621Z,17.70
2017-09-03T19:40:36.474Z,15.60
2017-09-03T19:43:05.187Z,15.10
2017-09-03T19:45:34.426Z,15.10
2017-09-03T19:50:50.645Z,14.70
2017-09-03T19:53:20.649Z,15.40
2017-09-03T19:55:50.207Z,16.20
2017-09-03T19:58:19.673Z,15.70
2017-09-03T20:00:48.996Z,16.00
2017-09-03T20:03:18.244Z,15.10
2017-09-03T20:05:47.705Z,15.30
2017-09-03T20:08:16.831Z,15.00
2017-09-03T20:10:46.371Z,14.00
2017-09-03T20:13:15.531Z,13.80
2017-09-03T20:15:44.768Z,14.20
2017-09-03T20:18:13.943Z,14.70
2017-09-03T20:20:43.084Z,14.60
2017-09-03T20:23:12.259Z,13.90
2017-09-03T20:25:41.699Z,13.50
2017-09-03T20:28:11.046Z,14.10
2017-09-03T20:30:40.122Z,14.50
2017-09-03T20:33:09.589Z,14.40
2017-09-03T20:35:39.008Z,13.80
2017-09-03T20:38:08.385Z,13.90
2017-09-03T20:40:37.722Z,14.20
2017-09-03T20:43:06.845Z,14.50
2017-09-03T20:45:35.941Z,14.10
2017-09-03T20:48:05.456Z,14.30
2017-09-03T20:50:34.626Z,14.20
2017-09-03T20:53:04.756Z,14.20
2017-09-03T20:55:34.295Z,14.40
2017-09-03T20:58:03.478Z,14.70
2017-09-03T21:00:32.652Z,14.20
2017-09-03T21:03:02.037Z,14.20
2017-09-03T21:05:31.329Z,14.80
2017-09-03T21:08:00.945Z,15.30
2017-09-03T21:10:30.089Z,15.30
2017-09-03T21:12:59.382Z,15.40
2017-09-03T21:15:28.712Z,15.50
2017-09-03T21:17:57.776Z,15.50
2017-09-03T21:20:27.273Z,14.80
2017-09-03T21:22:56.429Z,15.00
2017-09-03T21:25:25.887Z,15.50
2017-09-03T21:27:55.075Z,14.90
2017-09-03T21:30:24.420Z,15.20
2017-09-03T21:32:53.871Z,15.00
2017-09-03T21:35:23.195Z,14.10
2017-09-03T21:37:52.723Z,14.00
2017-09-03T21:40:21.893Z,14.50
2017-09-03T21:42:51.298Z,14.20
2017-09-03T21:45:20.503Z,14.50
2017-09-03T21:47:49.801Z,14.50
2017-09-03T21:50:19.417Z,14.50
2017-09-03T21:52:49.070Z,14.20
2017-09-03T21:55:19.354Z,14.40
2017-09-03T21:57:48.577Z,14.70
2017-09-03T22:00:17.765Z,14.30
2017-09-03T22:02:47.091Z,14.70
2017-09-03T22:05:16.706Z,13.90
2017-09-03T22:07:46.027Z,13.70
2017-09-03T22:10:15.429Z,14.00
2017-09-03T22:12:44.565Z,13.50
2017-09-03T22:15:13.877Z,14.00
2017-09-03T22:17:43.067Z,13.70
2017-09-03T22:20:12.386Z,13.60
2017-09-03T22:22:41.809Z,13.90
2017-09-03T22:25:11.359Z,13.10
2017-09-03T22:27:40.932Z,13.40
2017-09-03T22:30:10.475Z,13.40
2017-09-03T22:32:40.747Z,12.90
2017-09-03T22:35:09.456Z,12.80
2017-09-03T22:37:38.380Z,12.10
2017-09-03T22:40:08.633Z,12.20
2017-09-03T22:42:37.739Z,11.70
2017-09-03T22:45:06.415Z,12.20
2017-09-03T22:47:35.798Z,11.90
2017-09-03T22:50:04.993Z,11.20
2017-09-03T22:52:34.255Z,11.30
2017-09-03T22:55:03.478Z,11.20
2017-09-03T22:57:38.403Z,11.70
2017-09-03T23:00:07.227Z,11.60
2017-09-03T23:02:36.028Z,11.10
2017-09-03T23:05:05.676Z,11.50
2017-09-03T23:07:34.568Z,11.40
2017-09-03T23:10:03.718Z,11.10
2017-09-03T23:12:33.061Z,11.60
2017-09-03T23:15:02.652Z,11.90
2017-09-03T23:17:32.118Z,12.00
2017-09-03T23:20:01.506Z,12.00
2017-09-03T23:22:36.432Z,11.50
2017-09-03T23:25:06.505Z,11.40
2017-09-03T23:27:36.211Z,11.50
2017-09-03T23:30:05.560Z,11.00
2017-09-03T23:32:34.829Z,11.60
2017-09-03T23:35:04.191Z,10.70
2017-09-03T23:37:33.668Z,10.40
2017-09-03T23:40:02.851Z,9.70
2017-09-03T23:42:32.156Z,9.70
2017-09-03T23:45:01.462Z,9.70
2017-09-03T23:47:30.687Z,9.40
2017-09-03T23:50:00.665Z,9.60
2017-09-03T23:52:29.952Z,9.60
2017-09-03T23:54:59.399Z,10.50
2017-09-03T23:57:29.705Z,10.30
